sensor_id;sensor_type;location;lat;lon;timestamp;pressure;altitude;pressure_sealevel;temperature;humidity
22481;BME280;11407;56.964;-2.212;2022-11-20T00:01:17;100658.69;;;18.01;50.58
22481;BME280;11407;56.964;-2.212;2022-11-20T00:03:43;100660.69;;;17.83;51.38
22481;BME280;11407;56.964;-2.212;2022-11-20T00:06:14;100655.53;;;17.89;50.46
22481;BME280;11407;56.964;-2.212;2022-11-20T00:08:40;100642.34;;;17.80;50.10
22481;BME280;11407;56.964;-2.212;2022-11-20T00:11:08;100639.72;;;18.19;50.16
22481;BME280;11407;56.964;-2.212;2022-11-20T00:13:34;100636.56;;;18.24;49.85
22481;BME280;11407;56.964;-2.212;2022-11-20T00:16:01;100633.59;;;18.27;49.97
22481;BME280;11407;56.964;-2.212;2022-11-20T00:18:27;100636.38;;;18.17;50.67
22481;BME280;11407;56.964;-2.212;2022-11-20T00:20:53;100640.72;;;18.34;50.20
22481;BME280;11407;56.964;-2.212;2022-11-20T00:23:19;100645.06;;;18.35;49.65
22481;BME280;11407;56.964;-2.212;2022-11-20T00:25:45;100623.53;;;18.45;49.52
22481;BME280;11407;56.964;-2.212;2022-11-20T00:28:10;100616.72;;;18.26;48.40
22481;BME280;11407;56.964;-2.212;2022-11-20T00:30:35;100618.03;;;18.14;49.85
22481;BME280;11407;56.964;-2.212;2022-11-20T00:33:01;100623.03;;;18.17;50.08
22481;BME280;11407;56.964;-2.212;2022-11-20T00:35:26;100615.41;;;18.22;49.68
22481;BME280;11407;56.964;-2.212;2022-11-20T00:37:51;100614.41;;;18.31;49.98
22481;BME280;11407;56.964;-2.212;2022-11-20T00:40:17;100621.38;;;18.09;50.03
22481;BME280;11407;56.964;-2.212;2022-11-20T00:42:42;100607.03;;;18.17;50.15
22481;BME280;11407;56.964;-2.212;2022-11-20T00:45:08;100608.84;;;18.09;49.62
22481;BME280;11407;56.964;-2.212;2022-11-20T00:47:33;100612.25;;;18.27;50.21
22481;BME280;11407;56.964;-2.212;2022-11-20T00:49:59;100607.03;;;18.49;49.36
22481;BME280;11407;56.964;-2.212;2022-11-20T00:52:24;100599.53;;;18.37;49.63
22481;BME280;11407;56.964;-2.212;2022-11-20T00:54:49;100598.88;;;18.51;48.83
22481;BME280;11407;56.964;-2.212;2022-11-20T00:57:15;100603.69;;;18.39;49.59
22481;BME280;11407;56.964;-2.212;2022-11-20T00:59:40;100591.69;;;18.11;47.74
22481;BME280;11407;56.964;-2.212;2022-11-20T01:02:06;100594.03;;;18.30;49.07
22481;BME280;11407;56.964;-2.212;2022-11-20T01:04:31;100586.22;;;18.05;48.28
22481;BME280;11407;56.964;-2.212;2022-11-20T01:06:56;100577.03;;;18.08;48.83
22481;BME280;11407;56.964;-2.212;2022-11-20T01:09:22;100572.19;;;18.11;49.83
22481;BME280;11407;56.964;-2.212;2022-11-20T01:11:47;100568.00;;;18.16;48.76
22481;BME280;11407;56.964;-2.212;2022-11-20T01:14:16;100566.00;;;18.18;48.58
22481;BME280;11407;56.964;-2.212;2022-11-20T01:16:47;100570.69;;;18.16;49.21
22481;BME280;11407;56.964;-2.212;2022-11-20T01:19:16;100553.53;;;18.27;49.16
22481;BME280;11407;56.964;-2.212;2022-11-20T01:21:43;100561.69;;;18.17;48.69
22481;BME280;11407;56.964;-2.212;2022-11-20T01:24:14;100564.84;;;18.21;49.18
22481;BME280;11407;56.964;-2.212;2022-11-20T01:26:41;100554.16;;;18.21;48.84
22481;BME280;11407;56.964;-2.212;2022-11-20T01:29:12;100568.19;;;18.31;50.04
22481;BME280;11407;56.964;-2.212;2022-11-20T01:31:38;100546.03;;;18.07;47.27
22481;BME280;11407;56.964;-2.212;2022-11-20T01:34:15;100536.34;;;18.29;48.10
22481;BME280;11407;56.964;-2.212;2022-11-20T01:36:41;100547.53;;;17.93;49.22
22481;BME280;11407;56.964;-2.212;2022-11-20T01:39:12;100539.53;;;18.01;48.66
22481;BME280;11407;56.964;-2.212;2022-11-20T01:41:38;100530.03;;;17.83;48.80
22481;BME280;11407;56.964;-2.212;2022-11-20T01:44:43;100502.03;;;17.95;48.07
22481;BME280;11407;56.964;-2.212;2022-11-20T01:47:12;100513.84;;;18.08;48.84
22481;BME280;11407;56.964;-2.212;2022-11-20T01:49:46;100526.66;;;18.20;49.57
22481;BME280;11407;56.964;-2.212;2022-11-20T01:52:17;100519.16;;;18.08;48.51
22481;BME280;11407;56.964;-2.212;2022-11-20T01:54:49;100518.84;;;17.95;48.39
22481;BME280;11407;56.964;-2.212;2022-11-20T01:57:17;100510.50;;;18.14;49.34
22481;BME280;11407;56.964;-2.212;2022-11-20T01:59:49;100513.84;;;18.08;50.48
22481;BME280;11407;56.964;-2.212;2022-11-20T02:02:17;100494.34;;;18.08;49.37
22481;BME280;11407;56.964;-2.212;2022-11-20T02:04:43;100502.50;;;17.98;49.51
22481;BME280;11407;56.964;-2.212;2022-11-20T02:07:09;100493.97;;;18.18;49.92
22481;BME280;11407;56.964;-2.212;2022-11-20T02:09:34;100496.34;;;17.90;49.41
22481;BME280;11407;56.964;-2.212;2022-11-20T02:12:00;100503.19;;;18.00;48.32
22481;BME280;11407;56.964;-2.212;2022-11-20T02:14:27;100481.84;;;18.00;49.04
22481;BME280;11407;56.964;-2.212;2022-11-20T02:16:53;100495.47;;;18.21;50.08
22481;BME280;11407;56.964;-2.212;2022-11-20T02:24:27;100489.56;;;18.49;49.48
22481;BME280;11407;56.964;-2.212;2022-11-20T02:26:57;100483.84;;;18.68;49.56
22481;BME280;11407;56.964;-2.212;2022-11-20T02:29:31;100483.06;;;18.52;49.41
22481;BME280;11407;56.964;-2.212;2022-11-20T02:31:59;100480.28;;;18.37;48.84
22481;BME280;11407;56.964;-2.212;2022-11-20T02:34:26;100473.16;;;18.14;48.67
22481;BME280;11407;56.964;-2.212;2022-11-20T02:36:52;100473.13;;;18.38;49.85
22481;BME280;11407;56.964;-2.212;2022-11-20T02:39:19;100473.94;;;18.38;49.04
22481;BME280;11407;56.964;-2.212;2022-11-20T02:41:45;100472.47;;;18.36;49.36
22481;BME280;11407;56.964;-2.212;2022-11-20T02:44:11;100471.97;;;18.24;49.87
22481;BME280;11407;56.964;-2.212;2022-11-20T02:46:37;100459.81;;;18.22;49.82
22481;BME280;11407;56.964;-2.212;2022-11-20T02:49:03;100451.25;;;18.34;49.54
22481;BME280;11407;56.964;-2.212;2022-11-20T02:51:29;100441.44;;;18.19;48.71
22481;BME280;11407;56.964;-2.212;2022-11-20T02:53:55;100436.31;;;18.02;49.83
22481;BME280;11407;56.964;-2.212;2022-11-20T02:56:21;100429.81;;;18.12;49.31
22481;BME280;11407;56.964;-2.212;2022-11-20T02:58:46;100442.81;;;18.15;50.12
22481;BME280;11407;56.964;-2.212;2022-11-20T03:01:12;100432.81;;;18.25;49.81
22481;BME280;11407;56.964;-2.212;2022-11-20T03:03:38;100426.63;;;18.32;49.55
22481;BME280;11407;56.964;-2.212;2022-11-20T03:06:03;100425.28;;;18.28;49.50
22481;BME280;11407;56.964;-2.212;2022-11-20T03:08:29;100433.47;;;18.11;49.98
22481;BME280;11407;56.964;-2.212;2022-11-20T03:10:54;100413.28;;;18.24;48.92
22481;BME280;11407;56.964;-2.212;2022-11-20T03:13:20;100411.63;;;18.15;47.60
22481;BME280;11407;56.964;-2.212;2022-11-20T03:15:45;100415.13;;;18.24;48.22
22481;BME280;11407;56.964;-2.212;2022-11-20T03:18:10;100417.53;;;17.87;47.68
22481;BME280;11407;56.964;-2.212;2022-11-20T03:20:36;100419.84;;;17.98;47.09
22481;BME280;11407;56.964;-2.212;2022-11-20T03:23:01;100403.03;;;17.90;47.82
22481;BME280;11407;56.964;-2.212;2022-11-20T03:25:27;100398.06;;;17.79;47.74
22481;BME280;11407;56.964;-2.212;2022-11-20T03:27:53;100380.75;;;17.75;48.04
22481;BME280;11407;56.964;-2.212;2022-11-20T03:30:19;100395.22;;;17.72;48.85
22481;BME280;11407;56.964;-2.212;2022-11-20T03:32:44;100393.38;;;17.81;49.09
22481;BME280;11407;56.964;-2.212;2022-11-20T03:35:10;100402.75;;;17.69;49.12
22481;BME280;11407;56.964;-2.212;2022-11-20T03:37:35;100376.56;;;17.72;49.08
22481;BME280;11407;56.964;-2.212;2022-11-20T03:40:00;100373.38;;;17.77;48.90
22481;BME280;11407;56.964;-2.212;2022-11-20T03:42:26;100388.78;;;17.59;48.49
22481;BME280;11407;56.964;-2.212;2022-11-20T03:45:10;100392.59;;;17.48;49.12
22481;BME280;11407;56.964;-2.212;2022-11-20T03:47:35;100383.94;;;17.38;48.58
22481;BME280;11407;56.964;-2.212;2022-11-20T03:50:01;100377.47;;;17.41;49.40
22481;BME280;11407;56.964;-2.212;2022-11-20T03:52:26;100375.28;;;17.52;49.49
22481;BME280;11407;56.964;-2.212;2022-11-20T03:54:52;100376.78;;;17.55;49.35
22481;BME280;11407;56.964;-2.212;2022-11-20T03:57:17;100388.78;;;17.43;49.13
22481;BME280;11407;56.964;-2.212;2022-11-20T03:59:42;100392.94;;;17.37;49.17
22481;BME280;11407;56.964;-2.212;2022-11-20T04:02:08;100396.13;;;17.41;49.32
22481;BME280;11407;56.964;-2.212;2022-11-20T04:04:33;100395.78;;;17.44;49.29
22481;BME280;11407;56.964;-2.212;2022-11-20T04:06:58;100387.13;;;17.34;49.15
22481;BME280;11407;56.964;-2.212;2022-11-20T04:09:24;100385.94;;;17.36;49.47
22481;BME280;11407;56.964;-2.212;2022-11-20T04:11:49;100378.81;;;17.29;49.66
22481;BME280;11407;56.964;-2.212;2022-11-20T04:14:16;100366.47;;;17.36;49.69
22481;BME280;11407;56.964;-2.212;2022-11-20T04:16:41;100373.31;;;17.30;49.66
22481;BME280;11407;56.964;-2.212;2022-11-20T04:19:11;100366.47;;;17.36;49.42
22481;BME280;11407;56.964;-2.212;2022-11-20T04:21:37;100373.97;;;17.32;49.74
22481;BME280;11407;56.964;-2.212;2022-11-20T04:24:02;100359.63;;;17.25;49.74
22481;BME280;11407;56.964;-2.212;2022-11-20T04:26:29;100365.31;;;17.30;49.56
22481;BME280;11407;56.964;-2.212;2022-11-20T04:28:55;100355.47;;;17.23;49.57
22481;BME280;11407;56.964;-2.212;2022-11-20T04:31:26;100354.97;;;17.19;50.08
22481;BME280;11407;56.964;-2.212;2022-11-20T04:33:52;100360.13;;;17.21;49.95
22481;BME280;11407;56.964;-2.212;2022-11-20T04:36:20;100350.13;;;17.23;50.12
22481;BME280;11407;56.964;-2.212;2022-11-20T04:38:50;100341.53;;;17.29;49.98
22481;BME280;11407;56.964;-2.212;2022-11-20T04:41:18;100354.16;;;17.27;50.24
22481;BME280;11407;56.964;-2.212;2022-11-20T04:43:48;100358.63;;;17.18;49.85
22481;BME280;11407;56.964;-2.212;2022-11-20T04:46:15;100345.66;;;17.00;50.27
22481;BME280;11407;56.964;-2.212;2022-11-20T04:48:41;100356.63;;;17.05;50.09
22481;BME280;11407;56.964;-2.212;2022-11-20T04:51:06;100341.84;;;16.94;50.49
22481;BME280;11407;56.964;-2.212;2022-11-20T04:53:32;100349.31;;;16.91;50.35
22481;BME280;11407;56.964;-2.212;2022-11-20T04:56:02;100351.13;;;16.98;50.48
22481;BME280;11407;56.964;-2.212;2022-11-20T04:58:28;100344.50;;;16.94;50.26
22481;BME280;11407;56.964;-2.212;2022-11-20T05:00:53;100353.13;;;16.80;49.89
22481;BME280;11407;56.964;-2.212;2022-11-20T05:03:19;100351.16;;;16.90;49.98
22481;BME280;11407;56.964;-2.212;2022-11-20T05:05:44;100344.94;;;16.58;50.34
22481;BME280;11407;56.964;-2.212;2022-11-20T05:08:09;100349.25;;;16.43;50.15
22481;BME280;11407;56.964;-2.212;2022-11-20T05:10:35;100343.09;;;16.50;50.78
22481;BME280;11407;56.964;-2.212;2022-11-20T05:13:00;100338.28;;;16.54;50.59
22481;BME280;11407;56.964;-2.212;2022-11-20T05:15:25;100324.16;;;16.53;50.29
22481;BME280;11407;56.964;-2.212;2022-11-20T05:17:52;100318.19;;;16.59;50.72
22481;BME280;11407;56.964;-2.212;2022-11-20T05:20:18;100328.16;;;16.57;50.85
22481;BME280;11407;56.964;-2.212;2022-11-20T05:22:44;100322.00;;;16.73;50.72
22481;BME280;11407;56.964;-2.212;2022-11-20T05:25:10;100316.53;;;16.82;50.48
22481;BME280;11407;56.964;-2.212;2022-11-20T05:27:36;100325.84;;;16.86;50.66
22481;BME280;11407;56.964;-2.212;2022-11-20T05:30:03;100321.84;;;16.98;50.61
22481;BME280;11407;56.964;-2.212;2022-11-20T05:32:29;100316.03;;;16.95;50.42
22481;BME280;11407;56.964;-2.212;2022-11-20T05:34:54;100320.53;;;16.94;50.28
22481;BME280;11407;56.964;-2.212;2022-11-20T05:37:19;100322.03;;;16.97;50.56
22481;BME280;11407;56.964;-2.212;2022-11-20T05:39:45;100305.38;;;17.03;50.57
22481;BME280;11407;56.964;-2.212;2022-11-20T05:42:10;100311.69;;;17.02;50.57
22481;BME280;11407;56.964;-2.212;2022-11-20T05:44:54;100293.06;;;17.10;50.36
22481;BME280;11407;56.964;-2.212;2022-11-20T05:47:20;100305.22;;;17.04;50.72
22481;BME280;11407;56.964;-2.212;2022-11-20T05:49:45;100296.56;;;17.02;50.75
22481;BME280;11407;56.964;-2.212;2022-11-20T05:52:10;100294.72;;;17.03;50.78
22481;BME280;11407;56.964;-2.212;2022-11-20T05:54:36;100292.75;;;16.97;50.86
22481;BME280;11407;56.964;-2.212;2022-11-20T05:57:01;100303.56;;;16.95;50.81
22481;BME280;11407;56.964;-2.212;2022-11-20T05:59:26;100288.91;;;16.91;50.87
22481;BME280;11407;56.964;-2.212;2022-11-20T06:01:52;100297.22;;;16.88;51.05
22481;BME280;11407;56.964;-2.212;2022-11-20T06:04:17;100301.56;;;16.89;50.96
22481;BME280;11407;56.964;-2.212;2022-11-20T06:06:43;100289.56;;;17.01;50.47
22481;BME280;11407;56.964;-2.212;2022-11-20T06:09:08;100285.59;;;16.89;50.90
22481;BME280;11407;56.964;-2.212;2022-11-20T06:11:33;100289.56;;;16.85;50.60
22481;BME280;11407;56.964;-2.212;2022-11-20T06:13:59;100287.25;;;16.90;50.77
22481;BME280;11407;56.964;-2.212;2022-11-20T06:16:24;100287.25;;;16.90;50.96
22481;BME280;11407;56.964;-2.212;2022-11-20T06:18:50;100283.09;;;16.96;50.75
22481;BME280;11407;56.964;-2.212;2022-11-20T06:21:20;100282.25;;;17.03;50.40
22481;BME280;11407;56.964;-2.212;2022-11-20T06:23:47;100282.94;;;16.89;50.64
22481;BME280;11407;56.964;-2.212;2022-11-20T06:26:24;100275.44;;;16.93;50.74
22481;BME280;11407;56.964;-2.212;2022-11-20T06:28:51;100280.59;;;16.86;51.11
22481;BME280;11407;56.964;-2.212;2022-11-20T06:31:19;100273.97;;;16.82;51.12
22481;BME280;11407;56.964;-2.212;2022-11-20T06:33:45;100272.13;;;16.75;51.19
22481;BME280;11407;56.964;-2.212;2022-11-20T06:36:12;100261.97;;;16.46;51.28
22481;BME280;11407;56.964;-2.212;2022-11-20T06:38:39;100266.94;;;16.73;51.12
22481;BME280;11407;56.964;-2.212;2022-11-20T06:41:06;100249.34;;;16.80;51.22
22481;BME280;11407;56.964;-2.212;2022-11-20T06:43:32;100263.63;;;16.87;50.87
22481;BME280;11407;56.964;-2.212;2022-11-20T06:45:58;100263.13;;;16.92;51.19
22481;BME280;11407;56.964;-2.212;2022-11-20T06:48:26;100260.31;;;16.93;51.07
22481;BME280;11407;56.964;-2.212;2022-11-20T06:50:51;100259.81;;;16.82;51.08
22481;BME280;11407;56.964;-2.212;2022-11-20T06:53:17;100269.78;;;16.96;51.00
22481;BME280;11407;56.964;-2.212;2022-11-20T06:55:44;100261.31;;;16.92;51.34
22481;BME280;11407;56.964;-2.212;2022-11-20T06:58:10;100264.63;;;16.94;51.01
22481;BME280;11407;56.964;-2.212;2022-11-20T07:00:36;100253.31;;;16.84;50.56
22481;BME280;11407;56.964;-2.212;2022-11-20T07:03:05;100265.63;;;16.93;50.27
22481;BME280;11407;56.964;-2.212;2022-11-20T07:05:31;100255.31;;;16.82;51.05
22481;BME280;11407;56.964;-2.212;2022-11-20T07:07:57;100251.97;;;16.88;51.07
22481;BME280;11407;56.964;-2.212;2022-11-20T07:10:23;100267.94;;;16.88;51.05
22481;BME280;11407;56.964;-2.212;2022-11-20T07:12:52;100257.00;;;16.83;50.80
22481;BME280;11407;56.964;-2.212;2022-11-20T07:15:19;100258.16;;;16.89;50.79
22481;BME280;11407;56.964;-2.212;2022-11-20T07:17:45;100258.47;;;16.86;50.89
22481;BME280;11407;56.964;-2.212;2022-11-20T07:22:37;100252.47;;;16.92;50.94
22481;BME280;11407;56.964;-2.212;2022-11-20T07:25:02;100251.16;;;16.80;50.71
22481;BME280;11407;56.964;-2.212;2022-11-20T07:27:28;100238.66;;;16.88;50.80
22481;BME280;11407;56.964;-2.212;2022-11-20T07:29:54;100236.84;;;16.89;50.93
22481;BME280;11407;56.964;-2.212;2022-11-20T07:32:19;100246.00;;;16.78;51.20
22481;BME280;11407;56.964;-2.212;2022-11-20T07:34:45;100239.84;;;16.78;50.84
22481;BME280;11407;56.964;-2.212;2022-11-20T07:37:10;100238.66;;;16.72;50.99
22481;BME280;11407;56.964;-2.212;2022-11-20T07:39:36;100231.03;;;16.77;50.96
22481;BME280;11407;56.964;-2.212;2022-11-20T07:42:01;100235.19;;;16.80;50.79
22481;BME280;11407;56.964;-2.212;2022-11-20T07:44:26;100231.38;;;16.82;50.88
22481;BME280;11407;56.964;-2.212;2022-11-20T07:46:52;100227.84;;;16.90;51.00
22481;BME280;11407;56.964;-2.212;2022-11-20T07:49:17;100225.03;;;16.91;50.80
22481;BME280;11407;56.964;-2.212;2022-11-20T07:51:43;100218.38;;;16.87;50.91
22481;BME280;11407;56.964;-2.212;2022-11-20T07:54:08;100216.03;;;16.84;50.60
22481;BME280;11407;56.964;-2.212;2022-11-20T07:56:34;100213.56;;;16.83;50.79
22481;BME280;11407;56.964;-2.212;2022-11-20T07:58:59;100207.91;;;16.70;50.13
22481;BME280;11407;56.964;-2.212;2022-11-20T08:01:24;100218.03;;;16.74;50.99
22481;BME280;11407;56.964;-2.212;2022-11-20T08:03:50;100225.88;;;16.68;51.07
22481;BME280;11407;56.964;-2.212;2022-11-20T08:06:15;100222.56;;;16.66;50.95
22481;BME280;11407;56.964;-2.212;2022-11-20T08:08:41;100219.88;;;16.74;50.83
22481;BME280;11407;56.964;-2.212;2022-11-20T08:11:06;100204.75;;;16.66;50.82
22481;BME280;11407;56.964;-2.212;2022-11-20T08:13:50;100223.88;;;16.70;50.89
22481;BME280;11407;56.964;-2.212;2022-11-20T08:16:34;100210.41;;;16.55;51.18
22481;BME280;11407;56.964;-2.212;2022-11-20T08:18:59;100215.56;;;16.57;50.86
22481;BME280;11407;56.964;-2.212;2022-11-20T08:21:25;100222.56;;;16.58;50.93
22481;BME280;11407;56.964;-2.212;2022-11-20T08:23:51;100210.06;;;16.50;50.93
22481;BME280;11407;56.964;-2.212;2022-11-20T08:26:17;100216.22;;;16.59;50.78
22481;BME280;11407;56.964;-2.212;2022-11-20T08:28:42;100221.72;;;16.57;51.03
22481;BME280;11407;56.964;-2.212;2022-11-20T08:31:09;100206.94;;;16.63;50.86
22481;BME280;11407;56.964;-2.212;2022-11-20T08:33:35;100217.25;;;16.66;50.72
22481;BME280;11407;56.964;-2.212;2022-11-20T08:36:04;100205.94;;;16.64;51.00
22481;BME280;11407;56.964;-2.212;2022-11-20T08:38:30;100206.25;;;16.61;50.90
22481;BME280;11407;56.964;-2.212;2022-11-20T08:40:57;100207.75;;;16.63;50.80
22481;BME280;11407;56.964;-2.212;2022-11-20T08:43:41;100195.97;;;16.66;50.95
22481;BME280;11407;56.964;-2.212;2022-11-20T08:46:06;100199.09;;;16.69;50.64
22481;BME280;11407;56.964;-2.212;2022-11-20T08:48:32;100184.44;;;16.73;50.74
22481;BME280;11407;56.964;-2.212;2022-11-20T08:50:58;100181.63;;;16.75;50.97
22481;BME280;11407;56.964;-2.212;2022-11-20T08:53:24;100189.28;;;16.70;51.04
22481;BME280;11407;56.964;-2.212;2022-11-20T08:55:50;100180.13;;;16.64;51.20
22481;BME280;11407;56.964;-2.212;2022-11-20T08:58:15;100173.50;;;16.68;50.97
22481;BME280;11407;56.964;-2.212;2022-11-20T09:00:41;100174.66;;;16.74;50.89
22481;BME280;11407;56.964;-2.212;2022-11-20T09:03:06;100170.66;;;16.78;50.93
22481;BME280;11407;56.964;-2.212;2022-11-20T09:05:31;100175.63;;;16.81;51.14
22481;BME280;11407;56.964;-2.212;2022-11-20T09:07:58;100170.59;;;16.94;50.79
22481;BME280;11407;56.964;-2.212;2022-11-20T09:10:23;100166.47;;;16.91;50.92
22481;BME280;11407;56.964;-2.212;2022-11-20T09:12:49;100171.75;;;16.99;51.07
22481;BME280;11407;56.964;-2.212;2022-11-20T09:15:15;100164.78;;;16.98;51.05
22481;BME280;11407;56.964;-2.212;2022-11-20T09:17:41;100161.44;;;16.96;50.99
22481;BME280;11407;56.964;-2.212;2022-11-20T09:20:06;100161.25;;;17.06;51.09
22481;BME280;11407;56.964;-2.212;2022-11-20T09:22:32;100161.06;;;17.07;50.88
22481;BME280;11407;56.964;-2.212;2022-11-20T09:24:57;100156.41;;;17.17;50.80
22481;BME280;11407;56.964;-2.212;2022-11-20T09:27:23;100161.75;;;17.09;51.05
22481;BME280;11407;56.964;-2.212;2022-11-20T09:29:49;100153.56;;;17.18;51.23
22481;BME280;11407;56.964;-2.212;2022-11-20T09:32:14;100154.53;;;17.25;51.06
22481;BME280;11407;56.964;-2.212;2022-11-20T09:34:39;100151.22;;;17.23;50.79
22481;BME280;11407;56.964;-2.212;2022-11-20T09:37:05;100158.69;;;17.28;50.96
22481;BME280;11407;56.964;-2.212;2022-11-20T09:39:30;100150.75;;;17.12;51.28
22481;BME280;11407;56.964;-2.212;2022-11-20T09:47:35;100147.84;;;17.45;50.97
22481;BME280;11407;56.964;-2.212;2022-11-20T09:52:55;100138.50;;;17.41;51.25
22481;BME280;11407;56.964;-2.212;2022-11-20T09:55:24;100146.72;;;17.32;51.33
22481;BME280;11407;56.964;-2.212;2022-11-20T09:57:51;100135.66;;;17.43;50.89
22481;BME280;11407;56.964;-2.212;2022-11-20T10:00:17;100135.66;;;17.43;50.97
22481;BME280;11407;56.964;-2.212;2022-11-20T10:03:00;100138.31;;;17.51;50.56
22481;BME280;11407;56.964;-2.212;2022-11-20T10:10:40;100125.72;;;17.67;50.67
22481;BME280;11407;56.964;-2.212;2022-11-20T10:13:23;100124.72;;;17.68;50.63
22481;BME280;11407;56.964;-2.212;2022-11-20T10:29:17;100122.13;;;17.83;50.91
22481;BME280;11407;56.964;-2.212;2022-11-20T10:31:47;100119.75;;;17.88;50.61
22481;BME280;11407;56.964;-2.212;2022-11-20T10:34:27;100104.97;;;18.00;50.34
22481;BME280;11407;56.964;-2.212;2022-11-20T10:37:05;100099.03;;;17.98;50.62
22481;BME280;11407;56.964;-2.212;2022-11-20T10:42:08;100097.63;;;18.02;50.19
22481;BME280;11407;56.964;-2.212;2022-11-20T10:44:36;100095.50;;;17.97;50.52
22481;BME280;11407;56.964;-2.212;2022-11-20T10:47:20;100104.97;;;18.00;50.40
22481;BME280;11407;56.964;-2.212;2022-11-20T10:49:52;100101.53;;;18.13;49.98
22481;BME280;11407;56.964;-2.212;2022-11-20T10:55:33;100093.53;;;18.13;49.70
22481;BME280;11407;56.964;-2.212;2022-11-20T10:58:41;100095.66;;;18.18;50.01
22481;BME280;11407;56.964;-2.212;2022-11-20T11:01:04;100090.59;;;18.09;50.12
22481;BME280;11407;56.964;-2.212;2022-11-20T11:03:31;100093.72;;;18.12;50.24
22481;BME280;11407;56.964;-2.212;2022-11-20T11:06:47;100088.84;;;18.15;50.15
22481;BME280;11407;56.964;-2.212;2022-11-20T11:08:49;100089.16;;;18.20;50.46
22481;BME280;11407;56.964;-2.212;2022-11-20T11:11:22;100091.47;;;18.23;50.34
22481;BME280;11407;56.964;-2.212;2022-11-20T11:13:48;100098.72;;;18.15;50.58
22481;BME280;11407;56.964;-2.212;2022-11-20T11:16:32;100093.72;;;18.34;50.46
22481;BME280;11407;56.964;-2.212;2022-11-20T11:19:24;100089.31;;;18.41;50.14
22481;BME280;11407;56.964;-2.212;2022-11-20T11:21:50;100084.88;;;18.34;50.92
22481;BME280;11407;56.964;-2.212;2022-11-20T11:27:10;100080.44;;;18.63;50.61
22481;BME280;11407;56.964;-2.212;2022-11-20T11:29:36;100085.41;;;18.66;51.08
22481;BME280;11407;56.964;-2.212;2022-11-20T11:34:33;100082.56;;;18.97;50.96
22481;BME280;11407;56.964;-2.212;2022-11-20T11:37:00;100081.06;;;19.08;51.38
22481;BME280;11407;56.964;-2.212;2022-11-20T11:39:29;100078.41;;;19.23;51.52
22481;BME280;11407;56.964;-2.212;2022-11-20T11:41:56;100078.81;;;19.41;51.69
22481;BME280;11407;56.964;-2.212;2022-11-20T11:44:31;100080.84;;;19.74;50.88
22481;BME280;11407;56.964;-2.212;2022-11-20T11:47:25;100077.16;;;19.40;52.02
22481;BME280;11407;56.964;-2.212;2022-11-20T11:55:31;100075.06;;;19.71;51.26
22481;BME280;11407;56.964;-2.212;2022-11-20T11:58:51;100083.72;;;19.73;50.87
22481;BME280;11407;56.964;-2.212;2022-11-20T12:06:56;100077.31;;;19.74;50.80
22481;BME280;11407;56.964;-2.212;2022-11-20T12:09:32;100075.56;;;19.81;50.42
22481;BME280;11407;56.964;-2.212;2022-11-20T12:12:12;100071.09;;;19.88;49.69
22481;BME280;11407;56.964;-2.212;2022-11-20T12:14:43;100067.22;;;19.90;49.34
22481;BME280;11407;56.964;-2.212;2022-11-20T12:17:12;100065.00;;;19.73;48.91
22481;BME280;11407;56.964;-2.212;2022-11-20T12:19:38;100075.28;;;19.55;49.10
22481;BME280;11407;56.964;-2.212;2022-11-20T12:27:55;100065.03;;;19.08;48.20
22481;BME280;11407;56.964;-2.212;2022-11-20T12:30:26;100062.66;;;18.70;49.04
22481;BME280;11407;56.964;-2.212;2022-11-20T12:32:59;100063.59;;;18.63;49.45
22481;BME280;11407;56.964;-2.212;2022-11-20T12:39:17;100060.63;;;18.72;47.86
22481;BME280;11407;56.964;-2.212;2022-11-20T12:47:30;100080.94;;;18.08;48.78
22481;BME280;11407;56.964;-2.212;2022-11-20T12:58:24;100068.78;;;17.60;48.88
22481;BME280;11407;56.964;-2.212;2022-11-20T13:13:29;100065.78;;;17.63;48.77
22481;BME280;11407;56.964;-2.212;2022-11-20T13:16:08;100070.97;;;17.57;48.77
22481;BME280;11407;56.964;-2.212;2022-11-20T13:18:39;100065.97;;;17.62;48.94
22481;BME280;11407;56.964;-2.212;2022-11-20T13:21:21;100071.81;;;17.57;48.96
22481;BME280;11407;56.964;-2.212;2022-11-20T13:23:47;100075.53;;;17.48;49.16
22481;BME280;11407;56.964;-2.212;2022-11-20T13:26:21;100067.03;;;17.53;48.99
22481;BME280;11407;56.964;-2.212;2022-11-20T13:28:58;100080.59;;;17.27;50.28
22481;BME280;11407;56.964;-2.212;2022-11-20T13:31:32;100085.84;;;17.13;50.31
22481;BME280;11407;56.964;-2.212;2022-11-20T13:34:01;100080.72;;;17.12;50.71
22481;BME280;11407;56.964;-2.212;2022-11-20T13:36:28;100079.44;;;17.00;50.84
22481;BME280;11407;56.964;-2.212;2022-11-20T13:38:55;100085.72;;;17.07;50.77
22481;BME280;11407;56.964;-2.212;2022-11-20T13:41:25;100085.94;;;17.35;50.05
22481;BME280;11407;56.964;-2.212;2022-11-20T13:43:59;100082.78;;;17.32;49.73
22481;BME280;11407;56.964;-2.212;2022-11-20T13:46:36;100085.47;;;17.24;49.47
22481;BME280;11407;56.964;-2.212;2022-11-20T13:49:07;100095.94;;;16.87;50.19
22481;BME280;11407;56.964;-2.212;2022-11-20T13:51:43;100088.88;;;17.02;49.88
22481;BME280;11407;56.964;-2.212;2022-11-20T14:01:59;100101.88;;;16.97;49.45
22481;BME280;11407;56.964;-2.212;2022-11-20T14:04:36;100103.03;;;17.03;49.04
22481;BME280;11407;56.964;-2.212;2022-11-20T14:07:05;100107.38;;;16.96;49.39
22481;BME280;11407;56.964;-2.212;2022-11-20T14:09:32;100103.75;;;16.89;49.63
22481;BME280;11407;56.964;-2.212;2022-11-20T14:11:58;100108.59;;;16.77;49.65
22481;BME280;11407;56.964;-2.212;2022-11-20T14:14:26;100104.25;;;16.84;49.47
22481;BME280;11407;56.964;-2.212;2022-11-20T14:17:03;100121.44;;;16.74;49.14
22481;BME280;11407;56.964;-2.212;2022-11-20T14:19:30;100128.06;;;16.70;49.75
22481;BME280;11407;56.964;-2.212;2022-11-20T14:22:17;100135.56;;;16.66;49.47
22481;BME280;11407;56.964;-2.212;2022-11-20T14:27:28;100143.06;;;16.47;50.13
22481;BME280;11407;56.964;-2.212;2022-11-20T14:29:54;100142.56;;;16.51;50.24